sensor_id;sensor_type;location;lat;lon;timestamp;P1;durP1;ratioP1;P2;durP2;ratioP2
69703;SDS011;56967;43.538;-5.646;2022-07-12T00:00:06;49.35;;;18.50;;
69703;SDS011;56967;43.538;-5.646;2022-07-12T00:02:32;53.33;;;24.65;;
69703;SDS011;56967;43.538;-5.646;2022-07-12T00:04:57;37.13;;;18.27;;
69703;SDS011;56967;43.538;-5.646;2022-07-12T00:07:23;35.03;;;18.42;;
69703;SDS011;56967;43.538;-5.646;2022-07-12T00:09:48;45.92;;;23.20;;
69703;SDS011;56967;43.538;-5.646;2022-07-12T00:12:14;46.28;;;23.33;;
69703;SDS011;56967;43.538;-5.646;2022-07-12T00:14:39;50.83;;;22.67;;
69703;SDS011;56967;43.538;-5.646;2022-07-12T00:17:04;52.03;;;24.67;;
69703;SDS011;56967;43.538;-5.646;2022-07-12T00:19:30;46.03;;;22.30;;
69703;SDS011;56967;43.538;-5.646;2022-07-12T00:21:55;50.97;;;24.02;;
69703;SDS011;56967;43.538;-5.646;2022-07-12T00:24:21;51.40;;;23.73;;
69703;SDS011;56967;43.538;-5.646;2022-07-12T00:26:46;59.15;;;26.40;;
69703;SDS011;56967;43.538;-5.646;2022-07-12T00:29:11;61.60;;;28.63;;
69703;SDS011;56967;43.538;-5.646;2022-07-12T00:31:37;57.75;;;26.38;;
69703;SDS011;56967;43.538;-5.646;2022-07-12T00:34:02;57.97;;;26.08;;
69703;SDS011;56967;43.538;-5.646;2022-07-12T00:36:27;60.85;;;26.85;;
69703;SDS011;56967;43.538;-5.646;2022-07-12T00:38:53;53.00;;;24.83;;
69703;SDS011;56967;43.538;-5.646;2022-07-12T00:41:18;46.05;;;23.80;;
69703;SDS011;56967;43.538;-5.646;2022-07-12T00:43:44;58.60;;;26.05;;
69703;SDS011;56967;43.538;-5.646;2022-07-12T00:46:10;79.90;;;30.98;;
69703;SDS011;56967;43.538;-5.646;2022-07-12T00:48:36;76.88;;;27.70;;
69703;SDS011;56967;43.538;-5.646;2022-07-12T00:51:02;118.35;;;29.15;;
69703;SDS011;56967;43.538;-5.646;2022-07-12T00:53:27;115.95;;;29.00;;
69703;SDS011;56967;43.538;-5.646;2022-07-12T00:55:53;59.80;;;24.30;;
69703;SDS011;56967;43.538;-5.646;2022-07-12T00:58:20;59.83;;;18.67;;
69703;SDS011;56967;43.538;-5.646;2022-07-12T01:00:47;38.33;;;17.50;;
69703;SDS011;56967;43.538;-5.646;2022-07-12T01:03:13;47.50;;;16.98;;
69703;SDS011;56967;43.538;-5.646;2022-07-12T01:05:38;38.97;;;16.38;;
69703;SDS011;56967;43.538;-5.646;2022-07-12T01:08:04;41.60;;;14.60;;
69703;SDS011;56967;43.538;-5.646;2022-07-12T01:10:30;35.63;;;12.48;;
69703;SDS011;56967;43.538;-5.646;2022-07-12T01:12:59;29.60;;;12.00;;
69703;SDS011;56967;43.538;-5.646;2022-07-12T01:15:25;57.03;;;14.38;;
69703;SDS011;56967;43.538;-5.646;2022-07-12T01:17:51;28.92;;;13.85;;
69703;SDS011;56967;43.538;-5.646;2022-07-12T01:20:17;35.85;;;14.60;;
69703;SDS011;56967;43.538;-5.646;2022-07-12T01:22:48;85.15;;;15.93;;
69703;SDS011;56967;43.538;-5.646;2022-07-12T01:25:15;43.67;;;13.63;;
69703;SDS011;56967;43.538;-5.646;2022-07-12T01:27:40;27.80;;;14.55;;
69703;SDS011;56967;43.538;-5.646;2022-07-12T01:30:06;32.45;;;14.45;;
69703;SDS011;56967;43.538;-5.646;2022-07-12T01:32:31;32.47;;;14.23;;
69703;SDS011;56967;43.538;-5.646;2022-07-12T01:35:00;47.60;;;14.00;;
69703;SDS011;56967;43.538;-5.646;2022-07-12T01:37:30;18.35;;;12.68;;
69703;SDS011;56967;43.538;-5.646;2022-07-12T01:39:56;20.63;;;12.65;;
69703;SDS011;56967;43.538;-5.646;2022-07-12T01:42:22;23.23;;;13.23;;
69703;SDS011;56967;43.538;-5.646;2022-07-12T01:44:48;22.98;;;12.70;;
69703;SDS011;56967;43.538;-5.646;2022-07-12T01:47:15;29.27;;;11.55;;
69703;SDS011;56967;43.538;-5.646;2022-07-12T01:49:40;34.78;;;11.93;;
69703;SDS011;56967;43.538;-5.646;2022-07-12T01:52:05;17.52;;;10.88;;
69703;SDS011;56967;43.538;-5.646;2022-07-12T01:54:31;14.95;;;9.90;;
69703;SDS011;56967;43.538;-5.646;2022-07-12T01:56:57;15.45;;;9.77;;
69703;SDS011;56967;43.538;-5.646;2022-07-12T01:59:23;22.90;;;9.82;;
69703;SDS011;56967;43.538;-5.646;2022-07-12T02:01:48;18.45;;;9.00;;
69703;SDS011;56967;43.538;-5.646;2022-07-12T02:04:17;33.40;;;9.65;;
69703;SDS011;56967;43.538;-5.646;2022-07-12T02:06:43;38.17;;;10.43;;
69703;SDS011;56967;43.538;-5.646;2022-07-12T02:09:09;37.00;;;10.07;;
69703;SDS011;56967;43.538;-5.646;2022-07-12T02:11:34;39.03;;;9.95;;
69703;SDS011;56967;43.538;-5.646;2022-07-12T02:13:59;15.05;;;8.45;;
69703;SDS011;56967;43.538;-5.646;2022-07-12T02:16:25;20.55;;;9.75;;
69703;SDS011;56967;43.538;-5.646;2022-07-12T02:18:50;23.50;;;9.75;;
69703;SDS011;56967;43.538;-5.646;2022-07-12T02:21:15;16.85;;;8.85;;
69703;SDS011;56967;43.538;-5.646;2022-07-12T02:23:41;16.20;;;9.07;;
69703;SDS011;56967;43.538;-5.646;2022-07-12T02:26:06;19.30;;;8.73;;
69703;SDS011;56967;43.538;-5.646;2022-07-12T02:28:31;15.48;;;8.23;;
69703;SDS011;56967;43.538;-5.646;2022-07-12T02:30:57;12.93;;;8.85;;
69703;SDS011;56967;43.538;-5.646;2022-07-12T02:33:22;13.55;;;8.93;;
69703;SDS011;56967;43.538;-5.646;2022-07-12T02:35:48;16.50;;;10.07;;
69703;SDS011;56967;43.538;-5.646;2022-07-12T02:38:13;15.15;;;9.52;;
69703;SDS011;56967;43.538;-5.646;2022-07-12T02:40:38;15.15;;;9.52;;
69703;SDS011;56967;43.538;-5.646;2022-07-12T02:43:22;16.85;;;9.32;;
69703;SDS011;56967;43.538;-5.646;2022-07-12T02:45:47;18.80;;;11.15;;
69703;SDS011;56967;43.538;-5.646;2022-07-12T02:48:13;22.02;;;11.50;;
69703;SDS011;56967;43.538;-5.646;2022-07-12T02:50:41;18.05;;;10.98;;
69703;SDS011;56967;43.538;-5.646;2022-07-12T02:53:06;18.50;;;10.32;;
69703;SDS011;56967;43.538;-5.646;2022-07-12T02:55:32;19.77;;;11.43;;
69703;SDS011;56967;43.538;-5.646;2022-07-12T02:57:57;24.42;;;12.15;;
69703;SDS011;56967;43.538;-5.646;2022-07-12T03:00:23;19.15;;;10.63;;
69703;SDS011;56967;43.538;-5.646;2022-07-12T03:02:48;19.20;;;10.93;;
69703;SDS011;56967;43.538;-5.646;2022-07-12T03:05:14;16.15;;;9.80;;
69703;SDS011;56967;43.538;-5.646;2022-07-12T03:07:39;17.38;;;10.40;;
69703;SDS011;56967;43.538;-5.646;2022-07-12T03:10:04;23.58;;;12.00;;
69703;SDS011;56967;43.538;-5.646;2022-07-12T03:12:30;22.75;;;13.02;;
69703;SDS011;56967;43.538;-5.646;2022-07-12T03:14:55;21.52;;;12.43;;
69703;SDS011;56967;43.538;-5.646;2022-07-12T03:17:21;21.40;;;11.77;;
69703;SDS011;56967;43.538;-5.646;2022-07-12T03:19:46;17.75;;;10.45;;
69703;SDS011;56967;43.538;-5.646;2022-07-12T03:22:11;26.58;;;14.00;;
69703;SDS011;56967;43.538;-5.646;2022-07-12T03:24:37;28.00;;;14.35;;
69703;SDS011;56967;43.538;-5.646;2022-07-12T03:27:02;27.17;;;14.20;;
69703;SDS011;56967;43.538;-5.646;2022-07-12T03:29:28;24.55;;;12.80;;
69703;SDS011;56967;43.538;-5.646;2022-07-12T03:31:53;28.25;;;14.30;;
69703;SDS011;56967;43.538;-5.646;2022-07-12T03:34:18;30.55;;;15.55;;
69703;SDS011;56967;43.538;-5.646;2022-07-12T03:36:44;32.40;;;16.10;;
69703;SDS011;56967;43.538;-5.646;2022-07-12T03:39:10;32.03;;;17.15;;
69703;SDS011;56967;43.538;-5.646;2022-07-12T03:41:36;29.95;;;15.45;;
69703;SDS011;56967;43.538;-5.646;2022-07-12T03:44:01;28.35;;;15.63;;
69703;SDS011;56967;43.538;-5.646;2022-07-12T03:46:26;33.58;;;16.50;;
69703;SDS011;56967;43.538;-5.646;2022-07-12T03:48:52;22.83;;;12.23;;
69703;SDS011;56967;43.538;-5.646;2022-07-12T03:51:17;18.95;;;11.73;;
69703;SDS011;56967;43.538;-5.646;2022-07-12T03:53:42;25.20;;;14.18;;
69703;SDS011;56967;43.538;-5.646;2022-07-12T03:56:07;21.80;;;13.20;;
69703;SDS011;56967;43.538;-5.646;2022-07-12T03:58:33;17.83;;;10.73;;
69703;SDS011;56967;43.538;-5.646;2022-07-12T04:00:58;24.90;;;13.95;;
69703;SDS011;56967;43.538;-5.646;2022-07-12T04:03:23;22.00;;;13.20;;
69703;SDS011;56967;43.538;-5.646;2022-07-12T04:05:49;30.08;;;16.67;;
69703;SDS011;56967;43.538;-5.646;2022-07-12T04:08:14;21.23;;;13.00;;
69703;SDS011;56967;43.538;-5.646;2022-07-12T04:10:41;27.20;;;15.75;;
69703;SDS011;56967;43.538;-5.646;2022-07-12T04:13:06;25.88;;;13.52;;
69703;SDS011;56967;43.538;-5.646;2022-07-12T04:15:32;31.55;;;16.50;;
69703;SDS011;56967;43.538;-5.646;2022-07-12T04:17:57;21.50;;;13.05;;
69703;SDS011;56967;43.538;-5.646;2022-07-12T04:20:23;30.35;;;16.30;;
69703;SDS011;56967;43.538;-5.646;2022-07-12T04:22:48;22.90;;;12.60;;
69703;SDS011;56967;43.538;-5.646;2022-07-12T04:25:14;27.25;;;16.02;;
69703;SDS011;56967;43.538;-5.646;2022-07-12T04:27:39;21.00;;;12.95;;
69703;SDS011;56967;43.538;-5.646;2022-07-12T04:30:05;20.65;;;12.50;;
69703;SDS011;56967;43.538;-5.646;2022-07-12T04:32:30;23.10;;;13.80;;
69703;SDS011;56967;43.538;-5.646;2022-07-12T04:34:55;29.38;;;16.45;;
69703;SDS011;56967;43.538;-5.646;2022-07-12T04:37:21;30.77;;;16.80;;
69703;SDS011;56967;43.538;-5.646;2022-07-12T04:39:46;40.58;;;20.63;;
69703;SDS011;56967;43.538;-5.646;2022-07-12T04:42:11;29.83;;;16.55;;
69703;SDS011;56967;43.538;-5.646;2022-07-12T04:44:37;36.67;;;19.40;;
69703;SDS011;56967;43.538;-5.646;2022-07-12T04:47:02;30.70;;;17.73;;
69703;SDS011;56967;43.538;-5.646;2022-07-12T04:49:27;55.92;;;19.77;;
69703;SDS011;56967;43.538;-5.646;2022-07-12T04:51:53;37.10;;;18.42;;
69703;SDS011;56967;43.538;-5.646;2022-07-12T04:54:18;35.65;;;17.85;;
69703;SDS011;56967;43.538;-5.646;2022-07-12T04:56:43;37.83;;;18.33;;
69703;SDS011;56967;43.538;-5.646;2022-07-12T04:59:09;40.78;;;19.05;;
69703;SDS011;56967;43.538;-5.646;2022-07-12T05:01:35;36.80;;;18.02;;
69703;SDS011;56967;43.538;-5.646;2022-07-12T05:04:00;40.70;;;18.83;;
69703;SDS011;56967;43.538;-5.646;2022-07-12T05:06:25;39.00;;;18.45;;
69703;SDS011;56967;43.538;-5.646;2022-07-12T05:08:51;35.65;;;18.50;;
69703;SDS011;56967;43.538;-5.646;2022-07-12T05:11:16;40.50;;;18.13;;
69703;SDS011;56967;43.538;-5.646;2022-07-12T05:13:42;43.13;;;18.70;;
69703;SDS011;56967;43.538;-5.646;2022-07-12T05:16:08;44.15;;;20.85;;
69703;SDS011;56967;43.538;-5.646;2022-07-12T05:18:34;38.55;;;18.08;;
69703;SDS011;56967;43.538;-5.646;2022-07-12T05:20:59;41.58;;;19.17;;
69703;SDS011;56967;43.538;-5.646;2022-07-12T05:23:25;39.50;;;18.45;;
69703;SDS011;56967;43.538;-5.646;2022-07-12T05:25:50;35.70;;;17.55;;
69703;SDS011;56967;43.538;-5.646;2022-07-12T05:28:16;24.58;;;13.18;;
69703;SDS011;56967;43.538;-5.646;2022-07-12T05:30:44;22.98;;;13.20;;
69703;SDS011;56967;43.538;-5.646;2022-07-12T05:33:09;31.45;;;16.63;;
69703;SDS011;56967;43.538;-5.646;2022-07-12T05:35:35;30.30;;;16.60;;
69703;SDS011;56967;43.538;-5.646;2022-07-12T05:38:00;22.20;;;13.18;;
69703;SDS011;56967;43.538;-5.646;2022-07-12T05:40:26;23.83;;;13.75;;
69703;SDS011;56967;43.538;-5.646;2022-07-12T05:42:51;24.27;;;12.88;;
69703;SDS011;56967;43.538;-5.646;2022-07-12T05:45:17;22.00;;;11.70;;
69703;SDS011;56967;43.538;-5.646;2022-07-12T05:47:42;24.30;;;13.75;;
69703;SDS011;56967;43.538;-5.646;2022-07-12T05:50:07;19.88;;;12.38;;
69703;SDS011;56967;43.538;-5.646;2022-07-12T05:52:33;17.98;;;11.68;;
69703;SDS011;56967;43.538;-5.646;2022-07-12T05:55:17;21.05;;;12.70;;
69703;SDS011;56967;43.538;-5.646;2022-07-12T05:57:42;17.67;;;11.77;;
69703;SDS011;56967;43.538;-5.646;2022-07-12T06:00:07;16.23;;;11.00;;
69703;SDS011;56967;43.538;-5.646;2022-07-12T06:02:33;15.77;;;10.60;;
69703;SDS011;56967;43.538;-5.646;2022-07-12T06:04:58;19.92;;;12.63;;
69703;SDS011;56967;43.538;-5.646;2022-07-12T06:07:24;19.93;;;11.77;;
69703;SDS011;56967;43.538;-5.646;2022-07-12T06:09:49;16.40;;;10.87;;
69703;SDS011;56967;43.538;-5.646;2022-07-12T06:12:14;14.45;;;10.07;;
69703;SDS011;56967;43.538;-5.646;2022-07-12T06:14:40;12.63;;;9.35;;
69703;SDS011;56967;43.538;-5.646;2022-07-12T06:17:05;11.10;;;8.50;;
69703;SDS011;56967;43.538;-5.646;2022-07-12T06:19:34;8.85;;;7.63;;
69703;SDS011;56967;43.538;-5.646;2022-07-12T06:21:59;7.90;;;7.05;;
69703;SDS011;56967;43.538;-5.646;2022-07-12T06:24:25;8.68;;;6.65;;
69703;SDS011;56967;43.538;-5.646;2022-07-12T06:26:50;8.30;;;7.22;;
69703;SDS011;56967;43.538;-5.646;2022-07-12T06:29:16;7.65;;;6.30;;
69703;SDS011;56967;43.538;-5.646;2022-07-12T06:31:41;7.13;;;6.43;;
69703;SDS011;56967;43.538;-5.646;2022-07-12T06:34:06;7.37;;;6.67;;
69703;SDS011;56967;43.538;-5.646;2022-07-12T06:36:32;9.00;;;7.17;;
69703;SDS011;56967;43.538;-5.646;2022-07-12T06:38:57;7.40;;;6.70;;
69703;SDS011;56967;43.538;-5.646;2022-07-12T06:41:22;6.63;;;6.00;;
69703;SDS011;56967;43.538;-5.646;2022-07-12T06:43:49;6.82;;;6.13;;
69703;SDS011;56967;43.538;-5.646;2022-07-12T06:46:14;7.97;;;6.90;;
69703;SDS011;56967;43.538;-5.646;2022-07-12T06:48:40;7.27;;;6.67;;
69703;SDS011;56967;43.538;-5.646;2022-07-12T06:51:05;8.77;;;6.90;;
69703;SDS011;56967;43.538;-5.646;2022-07-12T06:53:30;8.87;;;7.40;;
69703;SDS011;56967;43.538;-5.646;2022-07-12T06:55:56;7.23;;;6.50;;
69703;SDS011;56967;43.538;-5.646;2022-07-12T06:58:22;8.45;;;7.35;;
69703;SDS011;56967;43.538;-5.646;2022-07-12T07:00:47;8.27;;;7.57;;
69703;SDS011;56967;43.538;-5.646;2022-07-12T07:03:13;8.10;;;7.33;;
69703;SDS011;56967;43.538;-5.646;2022-07-12T07:05:38;8.00;;;7.30;;
69703;SDS011;56967;43.538;-5.646;2022-07-12T07:08:03;9.40;;;8.50;;
69703;SDS011;56967;43.538;-5.646;2022-07-12T07:10:29;12.60;;;10.50;;
69703;SDS011;56967;43.538;-5.646;2022-07-12T07:12:54;24.60;;;11.20;;
69703;SDS011;56967;43.538;-5.646;2022-07-12T07:15:20;12.63;;;9.77;;
69703;SDS011;56967;43.538;-5.646;2022-07-12T07:17:45;14.33;;;9.40;;
69703;SDS011;56967;43.538;-5.646;2022-07-12T07:20:10;17.10;;;11.63;;
69703;SDS011;56967;43.538;-5.646;2022-07-12T07:22:36;10.70;;;9.50;;
69703;SDS011;56967;43.538;-5.646;2022-07-12T07:25:02;11.85;;;10.10;;
69703;SDS011;56967;43.538;-5.646;2022-07-12T07:27:27;11.70;;;10.50;;
69703;SDS011;56967;43.538;-5.646;2022-07-12T07:29:52;21.87;;;12.27;;
69703;SDS011;56967;43.538;-5.646;2022-07-12T07:32:36;180.93;;;32.78;;
69703;SDS011;56967;43.538;-5.646;2022-07-12T07:35:02;14.23;;;11.63;;
69703;SDS011;56967;43.538;-5.646;2022-07-12T07:37:29;12.27;;;10.95;;
69703;SDS011;56967;43.538;-5.646;2022-07-12T07:39:54;10.77;;;9.77;;
69703;SDS011;56967;43.538;-5.646;2022-07-12T07:42:20;15.30;;;10.37;;
69703;SDS011;56967;43.538;-5.646;2022-07-12T07:44:45;10.70;;;9.70;;
69703;SDS011;56967;43.538;-5.646;2022-07-12T07:47:11;11.70;;;10.60;;
69703;SDS011;56967;43.538;-5.646;2022-07-12T07:49:36;11.27;;;10.27;;
69703;SDS011;56967;43.538;-5.646;2022-07-12T07:52:01;10.97;;;10.17;;
69703;SDS011;56967;43.538;-5.646;2022-07-12T07:54:27;12.00;;;10.80;;
69703;SDS011;56967;43.538;-5.646;2022-07-12T07:56:52;13.20;;;12.10;;
69703;SDS011;56967;43.538;-5.646;2022-07-12T07:59:17;14.70;;;13.37;;
69703;SDS011;56967;43.538;-5.646;2022-07-12T08:01:43;16.17;;;14.77;;
69703;SDS011;56967;43.538;-5.646;2022-07-12T08:04:10;15.57;;;14.27;;
69703;SDS011;56967;43.538;-5.646;2022-07-12T08:06:36;16.35;;;15.10;;
69703;SDS011;56967;43.538;-5.646;2022-07-12T08:09:01;18.80;;;17.20;;
69703;SDS011;56967;43.538;-5.646;2022-07-12T08:11:27;19.33;;;17.58;;
69703;SDS011;56967;43.538;-5.646;2022-07-12T08:13:53;20.58;;;18.85;;
69703;SDS011;56967;43.538;-5.646;2022-07-12T08:16:18;22.73;;;20.77;;
69703;SDS011;56967;43.538;-5.646;2022-07-12T08:18:44;24.27;;;22.38;;
69703;SDS011;56967;43.538;-5.646;2022-07-12T08:21:09;24.37;;;22.37;;
69703;SDS011;56967;43.538;-5.646;2022-07-12T08:23:34;25.03;;;23.23;;
69703;SDS011;56967;43.538;-5.646;2022-07-12T08:26:00;24.07;;;22.17;;
69703;SDS011;56967;43.538;-5.646;2022-07-12T08:28:25;31.37;;;28.87;;
69703;SDS011;56967;43.538;-5.646;2022-07-12T08:30:50;30.17;;;27.43;;
69703;SDS011;56967;43.538;-5.646;2022-07-12T08:33:16;44.63;;;40.73;;
69703;SDS011;56967;43.538;-5.646;2022-07-12T08:35:41;38.43;;;34.90;;
69703;SDS011;56967;43.538;-5.646;2022-07-12T08:38:08;33.42;;;30.63;;
69703;SDS011;56967;43.538;-5.646;2022-07-12T08:40:33;38.47;;;35.03;;
69703;SDS011;56967;43.538;-5.646;2022-07-12T08:42:59;47.67;;;42.83;;
69703;SDS011;56967;43.538;-5.646;2022-07-12T08:45:27;41.67;;;37.95;;
69703;SDS011;56967;43.538;-5.646;2022-07-12T08:47:52;49.30;;;45.20;;
69703;SDS011;56967;43.538;-5.646;2022-07-12T08:50:19;62.40;;;57.30;;
69703;SDS011;56967;43.538;-5.646;2022-07-12T08:52:45;52.45;;;47.88;;
69703;SDS011;56967;43.538;-5.646;2022-07-12T08:55:18;54.03;;;49.63;;
69703;SDS011;56967;43.538;-5.646;2022-07-12T08:57:44;53.75;;;49.42;;
69703;SDS011;56967;43.538;-5.646;2022-07-12T09:00:09;69.47;;;64.37;;
69703;SDS011;56967;43.538;-5.646;2022-07-12T09:02:54;90.00;;;83.25;;
69703;SDS011;56967;43.538;-5.646;2022-07-12T09:05:21;48.85;;;44.88;;
69703;SDS011;56967;43.538;-5.646;2022-07-12T09:07:47;1999.90;;;999.90;;
69703;SDS011;56967;43.538;-5.646;2022-07-12T09:10:13;1999.90;;;999.90;;
69703;SDS011;56967;43.538;-5.646;2022-07-12T09:12:38;1999.90;;;999.90;;
69703;SDS011;56967;43.538;-5.646;2022-07-12T09:17:36;1999.90;;;999.90;;
69703;SDS011;56967;43.538;-5.646;2022-07-12T09:20:02;1999.90;;;999.90;;
69703;SDS011;56967;43.538;-5.646;2022-07-12T09:22:28;1999.90;;;999.90;;
69703;SDS011;56967;43.538;-5.646;2022-07-12T09:24:53;1999.90;;;999.90;;
69703;SDS011;56967;43.538;-5.646;2022-07-12T09:27:24;1999.90;;;999.90;;
69703;SDS011;56967;43.538;-5.646;2022-07-12T09:29:50;1999.90;;;999.90;;
69703;SDS011;56967;43.538;-5.646;2022-07-12T09:32:15;1999.90;;;999.90;;
69703;SDS011;56967;43.538;-5.646;2022-07-12T09:34:59;1999.90;;;999.90;;
69703;SDS011;56967;43.538;-5.646;2022-07-12T09:37:43;1999.90;;;999.90;;
69703;SDS011;56967;43.538;-5.646;2022-07-12T09:40:09;1999.90;;;999.90;;
69703;SDS011;56967;43.538;-5.646;2022-07-12T09:42:34;56.50;;;52.90;;
69703;SDS011;56967;43.538;-5.646;2022-07-12T09:45:01;51.83;;;48.63;;
69703;SDS011;56967;43.538;-5.646;2022-07-12T09:47:26;31.52;;;29.45;;
69703;SDS011;56967;43.538;-5.646;2022-07-12T09:49:51;18.63;;;17.45;;
69703;SDS011;56967;43.538;-5.646;2022-07-12T09:52:21;7.40;;;6.72;;
69703;SDS011;56967;43.538;-5.646;2022-07-12T09:54:47;4.38;;;2.20;;
69703;SDS011;56967;43.538;-5.646;2022-07-12T09:57:20;3.30;;;2.20;;
69703;SDS011;56967;43.538;-5.646;2022-07-12T09:59:47;3.08;;;2.05;;
69703;SDS011;56967;43.538;-5.646;2022-07-12T10:02:13;3.30;;;2.40;;
69703;SDS011;56967;43.538;-5.646;2022-07-12T10:04:41;4.10;;;2.50;;
69703;SDS011;56967;43.538;-5.646;2022-07-12T10:07:07;5.05;;;3.05;;
69703;SDS011;56967;43.538;-5.646;2022-07-12T10:09:33;3.60;;;2.80;;
69703;SDS011;56967;43.538;-5.646;2022-07-12T10:11:59;6.30;;;3.10;;
69703;SDS011;56967;43.538;-5.646;2022-07-12T10:14:25;5.13;;;3.17;;
69703;SDS011;56967;43.538;-5.646;2022-07-12T10:16:50;5.10;;;3.20;;
69703;SDS011;56967;43.538;-5.646;2022-07-12T10:19:21;5.45;;;3.03;;
69703;SDS011;56967;43.538;-5.646;2022-07-12T10:21:48;15.15;;;4.72;;
69703;SDS011;56967;43.538;-5.646;2022-07-12T10:24:59;178.23;;;23.30;;
69703;SDS011;56967;43.538;-5.646;2022-07-12T10:27:44;16.83;;;5.53;;
69703;SDS011;56967;43.538;-5.646;2022-07-12T10:29:52;6.30;;;3.85;;
69703;SDS011;56967;43.538;-5.646;2022-07-12T10:35:15;10.63;;;4.53;;
69703;SDS011;56967;43.538;-5.646;2022-07-12T10:37:41;12.38;;;4.45;;
69703;SDS011;56967;43.538;-5.646;2022-07-12T10:42:41;5.60;;;4.97;;
69703;SDS011;56967;43.538;-5.646;2022-07-12T10:45:29;4.68;;;4.15;;
69703;SDS011;56967;43.538;-5.646;2022-07-12T10:50:48;11.20;;;4.32;;
69703;SDS011;56967;43.538;-5.646;2022-07-12T10:53:21;10.25;;;3.78;;
69703;SDS011;56967;43.538;-5.646;2022-07-12T10:56:06;10.00;;;3.70;;
69703;SDS011;56967;43.538;-5.646;2022-07-12T11:01:27;10.13;;;3.85;;
69703;SDS011;56967;43.538;-5.646;2022-07-12T11:03:54;6.70;;;3.97;;
69703;SDS011;56967;43.538;-5.646;2022-07-12T11:06:22;16.63;;;3.08;;
69703;SDS011;56967;43.538;-5.646;2022-07-12T11:11:16;25.13;;;3.20;;
69703;SDS011;56967;43.538;-5.646;2022-07-12T11:13:41;18.40;;;3.13;;
69703;SDS011;56967;43.538;-5.646;2022-07-12T11:16:07;8.80;;;3.75;;
69703;SDS011;56967;43.538;-5.646;2022-07-12T11:18:33;6.45;;;3.92;;
69703;SDS011;56967;43.538;-5.646;2022-07-12T11:20:59;15.48;;;3.70;;
69703;SDS011;56967;43.538;-5.646;2022-07-12T11:23:25;6.13;;;3.53;;
69703;SDS011;56967;43.538;-5.646;2022-07-12T11:25:56;7.78;;;2.60;;
69703;SDS011;56967;43.538;-5.646;2022-07-12T11:28:23;6.00;;;3.25;;
69703;SDS011;56967;43.538;-5.646;2022-07-12T11:30:52;8.48;;;3.65;;
69703;SDS011;56967;43.538;-5.646;2022-07-12T11:33:18;7.13;;;3.22;;
69703;SDS011;56967;43.538;-5.646;2022-07-12T11:35:44;6.82;;;3.13;;
69703;SDS011;56967;43.538;-5.646;2022-07-12T11:38:10;6.22;;;3.67;;
69703;SDS011;56967;43.538;-5.646;2022-07-12T11:40:35;6.03;;;2.83;;
69703;SDS011;56967;43.538;-5.646;2022-07-12T11:43:01;3.97;;;2.20;;
69703;SDS011;56967;43.538;-5.646;2022-07-12T11:45:28;3.70;;;2.25;;
69703;SDS011;56967;43.538;-5.646;2022-07-12T11:47:54;4.00;;;2.60;;
69703;SDS011;56967;43.538;-5.646;2022-07-12T11:50:19;3.25;;;2.30;;
69703;SDS011;56967;43.538;-5.646;2022-07-12T11:52:45;6.47;;;2.58;;
69703;SDS011;56967;43.538;-5.646;2022-07-12T11:55:10;5.53;;;2.53;;
69703;SDS011;56967;43.538;-5.646;2022-07-12T11:57:36;4.07;;;2.72;;
69703;SDS011;56967;43.538;-5.646;2022-07-12T12:00:14;3.47;;;2.93;;
69703;SDS011;56967;43.538;-5.646;2022-07-12T12:02:39;6.63;;;3.42;;
69703;SDS011;56967;43.538;-5.646;2022-07-12T12:05:05;3.50;;;3.08;;
69703;SDS011;56967;43.538;-5.646;2022-07-12T12:07:30;4.50;;;3.30;;
69703;SDS011;56967;43.538;-5.646;2022-07-12T12:10:12;3.30;;;3.00;;
69703;SDS011;56967;43.538;-5.646;2022-07-12T12:15:10;4.40;;;2.80;;
69703;SDS011;56967;43.538;-5.646;2022-07-12T12:17:36;5.72;;;3.08;;
69703;SDS011;56967;43.538;-5.646;2022-07-12T12:20:10;4.05;;;2.72;;
69703;SDS011;56967;43.538;-5.646;2022-07-12T12:22:36;5.10;;;2.95;;
69703;SDS011;56967;43.538;-5.646;2022-07-12T12:25:03;4.57;;;2.30;;
69703;SDS011;56967;43.538;-5.646;2022-07-12T12:27:29;4.13;;;2.55;;
69703;SDS011;56967;43.538;-5.646;2022-07-12T12:29:58;2.72;;;2.10;;
69703;SDS011;56967;43.538;-5.646;2022-07-12T12:32:23;4.15;;;2.42;;
69703;SDS011;56967;43.538;-5.646;2022-07-12T12:35:05;2.50;;;2.30;;
69703;SDS011;56967;43.538;-5.646;2022-07-12T12:37:30;2.33;;;2.10;;
69703;SDS011;56967;43.538;-5.646;2022-07-12T12:39:56;4.43;;;2.35;;
69703;SDS011;56967;43.538;-5.646;2022-07-12T12:42:24;3.00;;;2.28;;
69703;SDS011;56967;43.538;-5.646;2022-07-12T12:44:50;2.95;;;2.40;;
69703;SDS011;56967;43.538;-5.646;2022-07-12T12:47:15;3.95;;;2.38;;
69703;SDS011;56967;43.538;-5.646;2022-07-12T12:49:56;3.95;;;2.20;;
69703;SDS011;56967;43.538;-5.646;2022-07-12T12:52:28;3.58;;;2.20;;
69703;SDS011;56967;43.538;-5.646;2022-07-12T12:54:54;3.70;;;2.35;;
69703;SDS011;56967;43.538;-5.646;2022-07-12T12:57:20;3.90;;;2.50;;
69703;SDS011;56967;43.538;-5.646;2022-07-12T12:59:46;4.20;;;2.35;;
69703;SDS011;56967;43.538;-5.646;2022-07-12T13:02:11;6.93;;;2.92;;
69703;SDS011;56967;43.538;-5.646;2022-07-12T13:04:37;4.72;;;2.65;;
69703;SDS011;56967;43.538;-5.646;2022-07-12T13:07:02;5.93;;;2.55;;
69703;SDS011;56967;43.538;-5.646;2022-07-12T13:09:28;6.95;;;1.90;;
69703;SDS011;56967;43.538;-5.646;2022-07-12T13:11:54;7.15;;;2.10;;
69703;SDS011;56967;43.538;-5.646;2022-07-12T13:14:20;12.07;;;3.40;;
69703;SDS011;56967;43.538;-5.646;2022-07-12T13:16:45;3.03;;;2.28;;
69703;SDS011;56967;43.538;-5.646;2022-07-12T13:19:11;3.42;;;1.90;;
69703;SDS011;56967;43.538;-5.646;2022-07-12T13:21:36;2.95;;;2.08;;
69703;SDS011;56967;43.538;-5.646;2022-07-12T13:24:01;5.13;;;2.58;;
69703;SDS011;56967;43.538;-5.646;2022-07-12T13:26:27;7.07;;;2.80;;
69703;SDS011;56967;43.538;-5.646;2022-07-12T13:28:53;6.70;;;2.90;;
69703;SDS011;56967;43.538;-5.646;2022-07-12T13:31:18;3.42;;;2.40;;
69703;SDS011;56967;43.538;-5.646;2022-07-12T13:33:43;5.82;;;2.60;;
69703;SDS011;56967;43.538;-5.646;2022-07-12T13:36:09;3.50;;;2.30;;
69703;SDS011;56967;43.538;-5.646;2022-07-12T13:38:34;6.25;;;2.33;;
69703;SDS011;56967;43.538;-5.646;2022-07-12T13:41:01;3.92;;;2.70;;
69703;SDS011;56967;43.538;-5.646;2022-07-12T13:43:26;3.45;;;2.60;;
69703;SDS011;56967;43.538;-5.646;2022-07-12T13:45:52;6.97;;;2.20;;
69703;SDS011;56967;43.538;-5.646;2022-07-12T13:48:17;5.88;;;2.10;;
69703;SDS011;56967;43.538;-5.646;2022-07-12T13:50:46;3.53;;;1.90;;
69703;SDS011;56967;43.538;-5.646;2022-07-12T13:53:12;4.75;;;2.10;;
69703;SDS011;56967;43.538;-5.646;2022-07-12T13:55:37;3.95;;;2.00;;
69703;SDS011;56967;43.538;-5.646;2022-07-12T13:58:03;3.33;;;2.40;;
69703;SDS011;56967;43.538;-5.646;2022-07-12T14:00:31;4.03;;;2.42;;
69703;SDS011;56967;43.538;-5.646;2022-07-12T14:02:59;4.13;;;2.50;;
69703;SDS011;56967;43.538;-5.646;2022-07-12T14:05:24;6.60;;;3.23;;
69703;SDS011;56967;43.538;-5.646;2022-07-12T14:07:50;2.53;;;2.10;;
69703;SDS011;56967;43.538;-5.646;2022-07-12T14:10:15;5.25;;;2.53;;
69703;SDS011;56967;43.538;-5.646;2022-07-12T14:12:41;6.90;;;2.83;;
69703;SDS011;56967;43.538;-5.646;2022-07-12T14:15:06;6.05;;;2.58;;
69703;SDS011;56967;43.538;-5.646;2022-07-12T14:20:03;3.27;;;2.70;;
69703;SDS011;56967;43.538;-5.646;2022-07-12T14:22:29;4.72;;;2.83;;
69703;SDS011;56967;43.538;-5.646;2022-07-12T14:24:55;3.47;;;2.30;;
69703;SDS011;56967;43.538;-5.646;2022-07-12T14:27:20;3.53;;;2.55;;
69703;SDS011;56967;43.538;-5.646;2022-07-12T14:29:46;5.25;;;2.72;;
69703;SDS011;56967;43.538;-5.646;2022-07-12T14:32:11;3.05;;;2.75;;